sensor_id;sensor_type;location;lat;lon;timestamp;temperature;humidity
3275;DHT22;1649;53.672;10.064;2023-03-21T00:01:44;7.40;99.90
3275;DHT22;1649;53.672;10.064;2023-03-21T00:04:10;7.40;99.90
3275;DHT22;1649;53.672;10.064;2023-03-21T00:06:36;7.40;99.90
3275;DHT22;1649;53.672;10.064;2023-03-21T00:09:03;7.40;99.90
3275;DHT22;1649;53.672;10.064;2023-03-21T00:11:28;7.40;99.90
3275;DHT22;1649;53.672;10.064;2023-03-21T00:13:54;7.40;99.90
3275;DHT22;1649;53.672;10.064;2023-03-21T00:16:26;7.30;99.90
3275;DHT22;1649;53.672;10.064;2023-03-21T00:18:55;7.40;99.90
3275;DHT22;1649;53.672;10.064;2023-03-21T00:21:23;7.40;99.90
3275;DHT22;1649;53.672;10.064;2023-03-21T00:23:57;7.40;99.90
3275;DHT22;1649;53.672;10.064;2023-03-21T00:26:22;7.40;99.90
3275;DHT22;1649;53.672;10.064;2023-03-21T00:28:48;7.40;99.90
3275;DHT22;1649;53.672;10.064;2023-03-21T00:31:14;7.40;99.90
3275;DHT22;1649;53.672;10.064;2023-03-21T00:33:40;7.40;99.90
3275;DHT22;1649;53.672;10.064;2023-03-21T00:36:07;7.40;99.90
3275;DHT22;1649;53.672;10.064;2023-03-21T00:38:33;7.40;99.90
3275;DHT22;1649;53.672;10.064;2023-03-21T00:40:59;7.40;99.90
3275;DHT22;1649;53.672;10.064;2023-03-21T00:43:25;7.40;99.90
3275;DHT22;1649;53.672;10.064;2023-03-21T00:45:56;7.40;99.90
3275;DHT22;1649;53.672;10.064;2023-03-21T00:48:22;7.40;99.90
3275;DHT22;1649;53.672;10.064;2023-03-21T00:50:50;7.50;99.90
3275;DHT22;1649;53.672;10.064;2023-03-21T00:53:17;7.50;99.90
3275;DHT22;1649;53.672;10.064;2023-03-21T00:55:43;7.50;99.90
3275;DHT22;1649;53.672;10.064;2023-03-21T00:58:08;7.50;99.90
3275;DHT22;1649;53.672;10.064;2023-03-21T01:00:34;7.50;99.90
3275;DHT22;1649;53.672;10.064;2023-03-21T01:03:05;7.50;99.90
3275;DHT22;1649;53.672;10.064;2023-03-21T01:05:37;7.50;99.90
3275;DHT22;1649;53.672;10.064;2023-03-21T01:08:22;7.50;99.90
3275;DHT22;1649;53.672;10.064;2023-03-21T01:10:48;7.40;99.90
3275;DHT22;1649;53.672;10.064;2023-03-21T01:13:16;7.50;99.90
3275;DHT22;1649;53.672;10.064;2023-03-21T01:15:44;7.50;99.90
3275;DHT22;1649;53.672;10.064;2023-03-21T01:18:10;7.50;99.90
3275;DHT22;1649;53.672;10.064;2023-03-21T01:20:36;7.50;99.90
3275;DHT22;1649;53.672;10.064;2023-03-21T01:23:02;7.50;99.90
3275;DHT22;1649;53.672;10.064;2023-03-21T01:25:27;7.50;99.90
3275;DHT22;1649;53.672;10.064;2023-03-21T01:27:53;7.50;99.90
3275;DHT22;1649;53.672;10.064;2023-03-21T01:30:21;7.50;99.90
3275;DHT22;1649;53.672;10.064;2023-03-21T01:32:46;7.50;99.90
3275;DHT22;1649;53.672;10.064;2023-03-21T01:35:12;7.50;99.90
3275;DHT22;1649;53.672;10.064;2023-03-21T01:37:37;7.50;99.90
3275;DHT22;1649;53.672;10.064;2023-03-21T01:40:04;7.50;99.90
3275;DHT22;1649;53.672;10.064;2023-03-21T01:42:30;7.50;99.90
3275;DHT22;1649;53.672;10.064;2023-03-21T01:45:01;7.50;99.90
3275;DHT22;1649;53.672;10.064;2023-03-21T01:47:27;7.50;99.90
3275;DHT22;1649;53.672;10.064;2023-03-21T01:49:56;7.50;99.90
3275;DHT22;1649;53.672;10.064;2023-03-21T01:52:26;7.60;99.90
3275;DHT22;1649;53.672;10.064;2023-03-21T01:54:54;7.60;99.90
3275;DHT22;1649;53.672;10.064;2023-03-21T01:57:24;7.60;99.90
3275;DHT22;1649;53.672;10.064;2023-03-21T01:59:56;7.50;99.90
3275;DHT22;1649;53.672;10.064;2023-03-21T02:02:30;7.60;99.90
3275;DHT22;1649;53.672;10.064;2023-03-21T02:04:56;7.60;99.90
3275;DHT22;1649;53.672;10.064;2023-03-21T02:07:31;7.60;99.90
3275;DHT22;1649;53.672;10.064;2023-03-21T02:10:04;7.50;99.90
3275;DHT22;1649;53.672;10.064;2023-03-21T02:12:32;7.50;99.90
3275;DHT22;1649;53.672;10.064;2023-03-21T02:14:58;7.60;99.90
3275;DHT22;1649;53.672;10.064;2023-03-21T02:17:47;7.60;99.90
3275;DHT22;1649;53.672;10.064;2023-03-21T02:28:56;7.60;99.90
3275;DHT22;1649;53.672;10.064;2023-03-21T02:31:49;7.60;99.90
3275;DHT22;1649;53.672;10.064;2023-03-21T02:40:39;7.60;99.90
3275;DHT22;1649;53.672;10.064;2023-03-21T02:43:28;7.60;99.90
3275;DHT22;1649;53.672;10.064;2023-03-21T02:46:00;7.60;99.90
3275;DHT22;1649;53.672;10.064;2023-03-21T02:48:34;7.60;99.90
3275;DHT22;1649;53.672;10.064;2023-03-21T02:51:04;7.60;99.90
3275;DHT22;1649;53.672;10.064;2023-03-21T02:53:36;7.60;99.90
3275;DHT22;1649;53.672;10.064;2023-03-21T02:56:03;7.60;99.90
3275;DHT22;1649;53.672;10.064;2023-03-21T02:58:30;7.70;99.90
3275;DHT22;1649;53.672;10.064;2023-03-21T03:00:56;7.60;99.90
3275;DHT22;1649;53.672;10.064;2023-03-21T03:03:22;7.60;99.90
3275;DHT22;1649;53.672;10.064;2023-03-21T03:05:51;7.60;99.90
3275;DHT22;1649;53.672;10.064;2023-03-21T03:16:42;7.70;99.90
3275;DHT22;1649;53.672;10.064;2023-03-21T03:19:16;7.70;99.90
3275;DHT22;1649;53.672;10.064;2023-03-21T03:21:49;7.60;99.90
3275;DHT22;1649;53.672;10.064;2023-03-21T03:26:52;7.70;99.90
3275;DHT22;1649;53.672;10.064;2023-03-21T03:29:21;7.70;99.90
3275;DHT22;1649;53.672;10.064;2023-03-21T03:34:38;7.70;99.90
3275;DHT22;1649;53.672;10.064;2023-03-21T03:37:08;7.70;99.90
3275;DHT22;1649;53.672;10.064;2023-03-21T03:39:57;7.70;99.90
3275;DHT22;1649;53.672;10.064;2023-03-21T03:42:29;7.70;99.90
3275;DHT22;1649;53.672;10.064;2023-03-21T03:44:56;7.70;99.90
3275;DHT22;1649;53.672;10.064;2023-03-21T03:47:41;7.70;99.90
3275;DHT22;1649;53.672;10.064;2023-03-21T03:52:43;7.70;99.90
3275;DHT22;1649;53.672;10.064;2023-03-21T03:55:13;7.70;99.90
3275;DHT22;1649;53.672;10.064;2023-03-21T03:57:39;7.70;99.90
3275;DHT22;1649;53.672;10.064;2023-03-21T04:00:05;7.80;99.90
3275;DHT22;1649;53.672;10.064;2023-03-21T04:02:36;7.80;99.90
3275;DHT22;1649;53.672;10.064;2023-03-21T04:05:02;7.80;99.90
3275;DHT22;1649;53.672;10.064;2023-03-21T04:07:28;7.70;99.90
3275;DHT22;1649;53.672;10.064;2023-03-21T04:09:54;7.80;99.90
3275;DHT22;1649;53.672;10.064;2023-03-21T04:12:19;7.80;99.90
3275;DHT22;1649;53.672;10.064;2023-03-21T04:14:45;7.80;99.90
3275;DHT22;1649;53.672;10.064;2023-03-21T04:17:10;7.80;99.90
3275;DHT22;1649;53.672;10.064;2023-03-21T04:19:36;7.80;99.90
3275;DHT22;1649;53.672;10.064;2023-03-21T04:22:02;7.80;99.90
3275;DHT22;1649;53.672;10.064;2023-03-21T04:24:27;7.80;99.90
3275;DHT22;1649;53.672;10.064;2023-03-21T04:26:57;7.80;99.90
3275;DHT22;1649;53.672;10.064;2023-03-21T04:29:23;7.80;99.90
3275;DHT22;1649;53.672;10.064;2023-03-21T04:31:48;7.90;99.90
3275;DHT22;1649;53.672;10.064;2023-03-21T04:34:14;7.80;99.90
3275;DHT22;1649;53.672;10.064;2023-03-21T04:36:40;7.80;99.90
3275;DHT22;1649;53.672;10.064;2023-03-21T04:39:12;7.90;99.90
3275;DHT22;1649;53.672;10.064;2023-03-21T04:41:39;7.90;99.90
3275;DHT22;1649;53.672;10.064;2023-03-21T04:44:05;7.90;99.90
3275;DHT22;1649;53.672;10.064;2023-03-21T04:46:31;7.90;99.90
3275;DHT22;1649;53.672;10.064;2023-03-21T04:48:58;7.90;99.90
3275;DHT22;1649;53.672;10.064;2023-03-21T04:51:24;7.90;99.90
3275;DHT22;1649;53.672;10.064;2023-03-21T04:53:50;7.90;99.90
3275;DHT22;1649;53.672;10.064;2023-03-21T04:56:17;7.90;99.90
3275;DHT22;1649;53.672;10.064;2023-03-21T04:58:43;7.90;99.90
3275;DHT22;1649;53.672;10.064;2023-03-21T05:01:08;7.90;99.90
3275;DHT22;1649;53.672;10.064;2023-03-21T05:03:34;7.90;99.90
3275;DHT22;1649;53.672;10.064;2023-03-21T05:06:07;7.90;99.90
3275;DHT22;1649;53.672;10.064;2023-03-21T05:08:34;7.90;99.90
3275;DHT22;1649;53.672;10.064;2023-03-21T05:11:00;7.90;99.90
3275;DHT22;1649;53.672;10.064;2023-03-21T05:13:26;7.90;99.90
3275;DHT22;1649;53.672;10.064;2023-03-21T05:15:51;8.00;99.90
3275;DHT22;1649;53.672;10.064;2023-03-21T05:18:17;7.90;99.90
3275;DHT22;1649;53.672;10.064;2023-03-21T05:20:50;7.90;99.90
3275;DHT22;1649;53.672;10.064;2023-03-21T05:23:19;8.00;99.90
3275;DHT22;1649;53.672;10.064;2023-03-21T05:25:45;8.00;99.90
3275;DHT22;1649;53.672;10.064;2023-03-21T05:28:11;8.00;99.90
3275;DHT22;1649;53.672;10.064;2023-03-21T05:30:36;8.00;99.90
3275;DHT22;1649;53.672;10.064;2023-03-21T05:33:02;8.00;99.90
3275;DHT22;1649;53.672;10.064;2023-03-21T05:35:27;8.00;99.90
3275;DHT22;1649;53.672;10.064;2023-03-21T05:37:53;8.00;99.90
3275;DHT22;1649;53.672;10.064;2023-03-21T05:40:18;8.00;99.90
3275;DHT22;1649;53.672;10.064;2023-03-21T05:42:45;8.00;99.90
3275;DHT22;1649;53.672;10.064;2023-03-21T05:45:12;8.00;99.90
3275;DHT22;1649;53.672;10.064;2023-03-21T05:47:37;8.00;99.90
3275;DHT22;1649;53.672;10.064;2023-03-21T05:50:03;8.00;99.90
3275;DHT22;1649;53.672;10.064;2023-03-21T05:52:29;8.00;99.90
3275;DHT22;1649;53.672;10.064;2023-03-21T05:54:55;8.00;99.90
3275;DHT22;1649;53.672;10.064;2023-03-21T05:57:20;8.00;99.90
3275;DHT22;1649;53.672;10.064;2023-03-21T05:59:46;8.00;99.90
3275;DHT22;1649;53.672;10.064;2023-03-21T06:02:12;8.00;99.90
3275;DHT22;1649;53.672;10.064;2023-03-21T06:04:37;8.00;99.90
3275;DHT22;1649;53.672;10.064;2023-03-21T06:07:03;8.00;99.90
3275;DHT22;1649;53.672;10.064;2023-03-21T06:09:29;8.00;99.90
3275;DHT22;1649;53.672;10.064;2023-03-21T06:11:55;8.00;99.90
3275;DHT22;1649;53.672;10.064;2023-03-21T06:14:22;8.10;99.90
3275;DHT22;1649;53.672;10.064;2023-03-21T06:16:48;8.10;99.90
3275;DHT22;1649;53.672;10.064;2023-03-21T06:19:13;8.10;99.90
3275;DHT22;1649;53.672;10.064;2023-03-21T06:21:39;8.10;99.90
3275;DHT22;1649;53.672;10.064;2023-03-21T06:24:05;8.10;99.90
3275;DHT22;1649;53.672;10.064;2023-03-21T06:26:31;8.10;99.90
3275;DHT22;1649;53.672;10.064;2023-03-21T06:28:56;8.10;99.90
3275;DHT22;1649;53.672;10.064;2023-03-21T06:31:22;8.10;99.90
3275;DHT22;1649;53.672;10.064;2023-03-21T06:33:49;8.10;99.90
3275;DHT22;1649;53.672;10.064;2023-03-21T06:36:16;8.20;99.90
3275;DHT22;1649;53.672;10.064;2023-03-21T06:38:41;8.20;99.90
3275;DHT22;1649;53.672;10.064;2023-03-21T06:41:07;8.20;99.90
3275;DHT22;1649;53.672;10.064;2023-03-21T06:43:33;8.20;99.90
3275;DHT22;1649;53.672;10.064;2023-03-21T06:45:59;8.20;99.90
3275;DHT22;1649;53.672;10.064;2023-03-21T06:48:25;8.20;99.90
3275;DHT22;1649;53.672;10.064;2023-03-21T06:50:51;8.20;99.90
3275;DHT22;1649;53.672;10.064;2023-03-21T06:53:18;8.20;99.90
3275;DHT22;1649;53.672;10.064;2023-03-21T06:55:48;8.20;99.90
3275;DHT22;1649;53.672;10.064;2023-03-21T06:58:14;8.20;99.90
3275;DHT22;1649;53.672;10.064;2023-03-21T07:00:40;8.20;99.90
3275;DHT22;1649;53.672;10.064;2023-03-21T07:03:06;8.30;99.90
3275;DHT22;1649;53.672;10.064;2023-03-21T07:05:31;8.30;99.90
3275;DHT22;1649;53.672;10.064;2023-03-21T07:07:59;8.40;99.90
3275;DHT22;1649;53.672;10.064;2023-03-21T07:10:25;8.40;99.90
3275;DHT22;1649;53.672;10.064;2023-03-21T07:12:50;8.40;99.90
3275;DHT22;1649;53.672;10.064;2023-03-21T07:15:16;8.40;99.90
3275;DHT22;1649;53.672;10.064;2023-03-21T07:17:41;8.40;99.90
3275;DHT22;1649;53.672;10.064;2023-03-21T07:20:08;8.40;99.90
3275;DHT22;1649;53.672;10.064;2023-03-21T07:22:34;8.40;99.90
3275;DHT22;1649;53.672;10.064;2023-03-21T07:25:00;8.40;99.90
3275;DHT22;1649;53.672;10.064;2023-03-21T07:27:25;8.50;99.90
3275;DHT22;1649;53.672;10.064;2023-03-21T07:29:51;8.50;99.90
3275;DHT22;1649;53.672;10.064;2023-03-21T07:32:16;8.50;99.90
3275;DHT22;1649;53.672;10.064;2023-03-21T07:34:42;8.50;99.90
3275;DHT22;1649;53.672;10.064;2023-03-21T07:37:07;8.50;99.90
3275;DHT22;1649;53.672;10.064;2023-03-21T07:39:33;8.50;99.90
3275;DHT22;1649;53.672;10.064;2023-03-21T07:41:59;8.50;99.90
3275;DHT22;1649;53.672;10.064;2023-03-21T07:44:26;8.60;99.90
3275;DHT22;1649;53.672;10.064;2023-03-21T07:46:51;8.70;99.90
3275;DHT22;1649;53.672;10.064;2023-03-21T07:49:17;8.70;99.90
3275;DHT22;1649;53.672;10.064;2023-03-21T07:51:42;8.70;99.90
3275;DHT22;1649;53.672;10.064;2023-03-21T07:54:08;8.60;99.90
3275;DHT22;1649;53.672;10.064;2023-03-21T07:56:33;8.70;99.90
3275;DHT22;1649;53.672;10.064;2023-03-21T07:58:59;8.60;99.90
3275;DHT22;1649;53.672;10.064;2023-03-21T08:01:25;8.70;99.90
3275;DHT22;1649;53.672;10.064;2023-03-21T08:03:51;8.70;99.90
3275;DHT22;1649;53.672;10.064;2023-03-21T08:06:18;8.70;99.90
3275;DHT22;1649;53.672;10.064;2023-03-21T08:08:44;8.60;99.90
3275;DHT22;1649;53.672;10.064;2023-03-21T08:11:10;8.60;99.90
3275;DHT22;1649;53.672;10.064;2023-03-21T08:13:36;8.60;99.90
3275;DHT22;1649;53.672;10.064;2023-03-21T08:16:02;8.60;99.90
3275;DHT22;1649;53.672;10.064;2023-03-21T08:18:27;8.60;99.90
3275;DHT22;1649;53.672;10.064;2023-03-21T08:20:57;8.70;99.90
3275;DHT22;1649;53.672;10.064;2023-03-21T08:23:23;8.70;99.90
3275;DHT22;1649;53.672;10.064;2023-03-21T08:25:55;8.70;99.90
3275;DHT22;1649;53.672;10.064;2023-03-21T08:28:22;8.70;99.90
3275;DHT22;1649;53.672;10.064;2023-03-21T08:30:48;8.70;99.90
3275;DHT22;1649;53.672;10.064;2023-03-21T08:33:15;8.80;99.90
3275;DHT22;1649;53.672;10.064;2023-03-21T08:35:42;8.80;99.90
3275;DHT22;1649;53.672;10.064;2023-03-21T08:38:07;8.90;99.90
3275;DHT22;1649;53.672;10.064;2023-03-21T08:40:33;8.90;99.90
3275;DHT22;1649;53.672;10.064;2023-03-21T08:42:59;8.90;99.90
3275;DHT22;1649;53.672;10.064;2023-03-21T08:45:25;9.00;99.90
3275;DHT22;1649;53.672;10.064;2023-03-21T08:47:52;8.90;99.90
3275;DHT22;1649;53.672;10.064;2023-03-21T08:50:20;9.00;99.90
3275;DHT22;1649;53.672;10.064;2023-03-21T08:52:46;9.00;99.90
3275;DHT22;1649;53.672;10.064;2023-03-21T08:55:13;9.10;99.90
3275;DHT22;1649;53.672;10.064;2023-03-21T08:57:39;9.10;99.90
3275;DHT22;1649;53.672;10.064;2023-03-21T09:00:06;9.20;99.90
3275;DHT22;1649;53.672;10.064;2023-03-21T09:02:36;9.20;99.90
3275;DHT22;1649;53.672;10.064;2023-03-21T09:05:02;9.20;99.90
3275;DHT22;1649;53.672;10.064;2023-03-21T09:07:30;9.20;99.90
3275;DHT22;1649;53.672;10.064;2023-03-21T09:09:59;9.20;99.90
3275;DHT22;1649;53.672;10.064;2023-03-21T09:12:25;9.30;99.90
3275;DHT22;1649;53.672;10.064;2023-03-21T09:14:50;9.30;99.90
3275;DHT22;1649;53.672;10.064;2023-03-21T09:17:18;9.40;99.90
3275;DHT22;1649;53.672;10.064;2023-03-21T09:19:44;9.40;99.90
3275;DHT22;1649;53.672;10.064;2023-03-21T09:22:10;9.30;99.90
3275;DHT22;1649;53.672;10.064;2023-03-21T09:24:42;9.30;99.90
3275;DHT22;1649;53.672;10.064;2023-03-21T09:27:10;9.30;99.90
3275;DHT22;1649;53.672;10.064;2023-03-21T09:29:36;9.30;99.90
3275;DHT22;1649;53.672;10.064;2023-03-21T09:32:02;9.30;99.90
3275;DHT22;1649;53.672;10.064;2023-03-21T09:34:28;9.30;99.90
3275;DHT22;1649;53.672;10.064;2023-03-21T09:36:54;9.30;99.90
3275;DHT22;1649;53.672;10.064;2023-03-21T09:39:21;9.30;99.90
3275;DHT22;1649;53.672;10.064;2023-03-21T09:41:53;9.30;99.90
3275;DHT22;1649;53.672;10.064;2023-03-21T09:44:37;9.40;99.90
3275;DHT22;1649;53.672;10.064;2023-03-21T09:47:16;9.40;99.90
3275;DHT22;1649;53.672;10.064;2023-03-21T09:49:49;9.40;99.90
3275;DHT22;1649;53.672;10.064;2023-03-21T09:52:31;9.40;99.90
3275;DHT22;1649;53.672;10.064;2023-03-21T09:54:58;9.40;99.90
3275;DHT22;1649;53.672;10.064;2023-03-21T09:57:30;9.40;99.90
3275;DHT22;1649;53.672;10.064;2023-03-21T09:59:59;9.50;99.90
3275;DHT22;1649;53.672;10.064;2023-03-21T10:02:38;9.50;99.90
3275;DHT22;1649;53.672;10.064;2023-03-21T10:05:25;9.60;99.90
3275;DHT22;1649;53.672;10.064;2023-03-21T10:08:04;9.60;99.90
3275;DHT22;1649;53.672;10.064;2023-03-21T10:10:54;9.60;99.90
3275;DHT22;1649;53.672;10.064;2023-03-21T10:13:27;9.70;99.90
3275;DHT22;1649;53.672;10.064;2023-03-21T10:15:57;9.70;99.90
3275;DHT22;1649;53.672;10.064;2023-03-21T10:18:28;9.70;99.90
3275;DHT22;1649;53.672;10.064;2023-03-21T10:20:54;9.70;99.90
3275;DHT22;1649;53.672;10.064;2023-03-21T10:23:25;9.80;99.90
3275;DHT22;1649;53.672;10.064;2023-03-21T10:25:58;9.80;99.90
3275;DHT22;1649;53.672;10.064;2023-03-21T10:28:28;9.80;99.90
3275;DHT22;1649;53.672;10.064;2023-03-21T10:31:18;9.80;99.90
3275;DHT22;1649;53.672;10.064;2023-03-21T10:33:46;9.80;99.90
3275;DHT22;1649;53.672;10.064;2023-03-21T10:36:18;9.90;99.90
3275;DHT22;1649;53.672;10.064;2023-03-21T10:38:52;9.90;99.90
3275;DHT22;1649;53.672;10.064;2023-03-21T10:41:18;9.90;99.90
3275;DHT22;1649;53.672;10.064;2023-03-21T10:43:45;10.10;99.90
3275;DHT22;1649;53.672;10.064;2023-03-21T10:46:19;10.20;99.90
3275;DHT22;1649;53.672;10.064;2023-03-21T10:48:50;10.20;99.90
3275;DHT22;1649;53.672;10.064;2023-03-21T10:51:27;10.00;99.90
3275;DHT22;1649;53.672;10.064;2023-03-21T10:53:57;10.00;99.90
3275;DHT22;1649;53.672;10.064;2023-03-21T10:56:29;10.00;99.90
3275;DHT22;1649;53.672;10.064;2023-03-21T10:58:57;9.90;99.90
3275;DHT22;1649;53.672;10.064;2023-03-21T11:04:07;9.90;99.90
3275;DHT22;1649;53.672;10.064;2023-03-21T11:06:37;9.90;99.90
3275;DHT22;1649;53.672;10.064;2023-03-21T11:09:18;10.00;99.90
3275;DHT22;1649;53.672;10.064;2023-03-21T11:12:14;10.00;99.90
3275;DHT22;1649;53.672;10.064;2023-03-21T11:14:41;10.10;99.90
3275;DHT22;1649;53.672;10.064;2023-03-21T11:22:14;10.00;99.90
3275;DHT22;1649;53.672;10.064;2023-03-21T11:24:45;10.00;99.90
3275;DHT22;1649;53.672;10.064;2023-03-21T11:27:13;10.00;99.90
3275;DHT22;1649;53.672;10.064;2023-03-21T11:29:39;10.00;99.90
3275;DHT22;1649;53.672;10.064;2023-03-21T11:32:20;9.90;99.90
3275;DHT22;1649;53.672;10.064;2023-03-21T11:34:50;9.90;99.90
3275;DHT22;1649;53.672;10.064;2023-03-21T11:37:31;9.90;99.90
3275;DHT22;1649;53.672;10.064;2023-03-21T11:40:12;9.90;99.90
3275;DHT22;1649;53.672;10.064;2023-03-21T11:42:45;10.00;99.90
3275;DHT22;1649;53.672;10.064;2023-03-21T11:45:23;10.00;99.90
3275;DHT22;1649;53.672;10.064;2023-03-21T11:47:51;10.00;99.90
3275;DHT22;1649;53.672;10.064;2023-03-21T11:50:19;10.00;99.90
3275;DHT22;1649;53.672;10.064;2023-03-21T11:55:50;10.10;99.90
3275;DHT22;1649;53.672;10.064;2023-03-21T12:01:26;10.20;99.90
3275;DHT22;1649;53.672;10.064;2023-03-21T12:06:36;10.10;99.90
3275;DHT22;1649;53.672;10.064;2023-03-21T12:12:02;10.20;99.90
3275;DHT22;1649;53.672;10.064;2023-03-21T12:20:28;10.20;99.90
3275;DHT22;1649;53.672;10.064;2023-03-21T12:37:30;10.70;99.90
3275;DHT22;1649;53.672;10.064;2023-03-21T12:40:38;10.70;99.90
3275;DHT22;1649;53.672;10.064;2023-03-21T12:43:16;10.60;99.90
3275;DHT22;1649;53.672;10.064;2023-03-21T12:45:59;10.50;99.90
3275;DHT22;1649;53.672;10.064;2023-03-21T12:48:46;10.50;99.90
3275;DHT22;1649;53.672;10.064;2023-03-21T12:51:17;10.50;99.90
3275;DHT22;1649;53.672;10.064;2023-03-21T12:56:48;10.40;99.90
3275;DHT22;1649;53.672;10.064;2023-03-21T12:59:21;10.40;99.90
3275;DHT22;1649;53.672;10.064;2023-03-21T13:01:50;10.30;99.90
3275;DHT22;1649;53.672;10.064;2023-03-21T13:04:46;10.30;99.90
3275;DHT22;1649;53.672;10.064;2023-03-21T13:07:17;10.30;99.90
3275;DHT22;1649;53.672;10.064;2023-03-21T13:09:45;10.20;99.90
3275;DHT22;1649;53.672;10.064;2023-03-21T13:18:11;10.30;99.90
3275;DHT22;1649;53.672;10.064;2023-03-21T13:20:56;10.20;99.90
3275;DHT22;1649;53.672;10.064;2023-03-21T13:23:24;10.20;99.90
3275;DHT22;1649;53.672;10.064;2023-03-21T13:25:53;10.20;99.90
3275;DHT22;1649;53.672;10.064;2023-03-21T13:28:24;10.20;99.90
3275;DHT22;1649;53.672;10.064;2023-03-21T13:30:50;10.20;99.90
3275;DHT22;1649;53.672;10.064;2023-03-21T13:33:22;10.20;99.90
3275;DHT22;1649;53.672;10.064;2023-03-21T13:35:59;10.20;99.90
3275;DHT22;1649;53.672;10.064;2023-03-21T13:38:32;10.20;99.90
3275;DHT22;1649;53.672;10.064;2023-03-21T13:40:59;10.20;99.90
3275;DHT22;1649;53.672;10.064;2023-03-21T13:43:39;10.10;99.90
3275;DHT22;1649;53.672;10.064;2023-03-21T13:46:13;10.10;99.90
3275;DHT22;1649;53.672;10.064;2023-03-21T13:49:14;10.20;99.90
3275;DHT22;1649;53.672;10.064;2023-03-21T13:51:50;10.20;99.90
3275;DHT22;1649;53.672;10.064;2023-03-21T13:54:59;10.10;99.90
3275;DHT22;1649;53.672;10.064;2023-03-21T13:57:06;10.10;99.90
3275;DHT22;1649;53.672;10.064;2023-03-21T13:59:44;10.10;99.90
3275;DHT22;1649;53.672;10.064;2023-03-21T14:02:34;10.00;99.90
3275;DHT22;1649;53.672;10.064;2023-03-21T14:05:13;10.10;99.90
3275;DHT22;1649;53.672;10.064;2023-03-21T14:07:43;10.10;99.90
3275;DHT22;1649;53.672;10.064;2023-03-21T14:10:42;10.20;99.90
3275;DHT22;1649;53.672;10.064;2023-03-21T14:13:14;10.20;99.90
3275;DHT22;1649;53.672;10.064;2023-03-21T14:15:46;10.30;99.90
3275;DHT22;1649;53.672;10.064;2023-03-21T14:18:15;10.20;99.90
3275;DHT22;1649;53.672;10.064;2023-03-21T14:20:41;10.20;99.90
3275;DHT22;1649;53.672;10.064;2023-03-21T14:23:13;10.20;99.90
3275;DHT22;1649;53.672;10.064;2023-03-21T14:25:39;10.20;99.90
3275;DHT22;1649;53.672;10.064;2023-03-21T14:28:16;10.20;99.90
3275;DHT22;1649;53.672;10.064;2023-03-21T14:30:43;10.20;99.90
3275;DHT22;1649;53.672;10.064;2023-03-21T14:33:40;10.10;99.90
3275;DHT22;1649;53.672;10.064;2023-03-21T14:36:15;10.10;99.90
3275;DHT22;1649;53.672;10.064;2023-03-21T14:38:41;10.10;99.90
3275;DHT22;1649;53.672;10.064;2023-03-21T14:41:27;10.10;99.90
3275;DHT22;1649;53.672;10.064;2023-03-21T14:44:20;10.10;99.90
3275;DHT22;1649;53.672;10.064;2023-03-21T14:46:58;10.10;99.90
3275;DHT22;1649;53.672;10.064;2023-03-21T14:49:35;10.10;99.90
3275;DHT22;1649;53.672;10.064;2023-03-21T14:52:04;10.10;99.90
3275;DHT22;1649;53.672;10.064;2023-03-21T14:54:30;10.10;99.90
3275;DHT22;1649;53.672;10.064;2023-03-21T14:56:59;10.10;99.90
3275;DHT22;1649;53.672;10.064;2023-03-21T14:59:32;10.00;99.90
3275;DHT22;1649;53.672;10.064;2023-03-21T15:02:01;10.10;99.90
3275;DHT22;1649;53.672;10.064;2023-03-21T15:04:28;10.10;99.90
3275;DHT22;1649;53.672;10.064;2023-03-21T15:07:00;10.10;99.90
3275;DHT22;1649;53.672;10.064;2023-03-21T15:09:31;10.00;99.90
3275;DHT22;1649;53.672;10.064;2023-03-21T15:11:58;10.00;99.90
3275;DHT22;1649;53.672;10.064;2023-03-21T15:14:27;10.00;99.90
3275;DHT22;1649;53.672;10.064;2023-03-21T15:16:55;10.00;99.90
3275;DHT22;1649;53.672;10.064;2023-03-21T15:19:27;10.00;99.90
3275;DHT22;1649;53.672;10.064;2023-03-21T15:21:58;10.00;99.90
3275;DHT22;1649;53.672;10.064;2023-03-21T15:24:27;10.00;99.90
3275;DHT22;1649;53.672;10.064;2023-03-21T15:27:02;10.00;99.90
3275;DHT22;1649;53.672;10.064;2023-03-21T15:29:28;10.00;99.90
3275;DHT22;1649;53.672;10.064;2023-03-21T15:31:54;10.00;99.90
3275;DHT22;1649;53.672;10.064;2023-03-21T15:34:23;10.00;99.90
3275;DHT22;1649;53.672;10.064;2023-03-21T15:36:53;10.00;99.90
3275;DHT22;1649;53.672;10.064;2023-03-21T15:39:20;10.00;99.90
3275;DHT22;1649;53.672;10.064;2023-03-21T15:41:59;10.00;99.90
3275;DHT22;1649;53.672;10.064;2023-03-21T15:44:27;10.00;99.90
3275;DHT22;1649;53.672;10.064;2023-03-21T15:46:53;10.00;99.90
3275;DHT22;1649;53.672;10.064;2023-03-21T15:49:32;9.90;99.90
3275;DHT22;1649;53.672;10.064;2023-03-21T15:52:11;9.90;99.90
3275;DHT22;1649;53.672;10.064;2023-03-21T15:54:43;9.90;99.90
3275;DHT22;1649;53.672;10.064;2023-03-21T15:57:31;9.90;99.90
3275;DHT22;1649;53.672;10.064;2023-03-21T16:02:38;9.90;99.90
3275;DHT22;1649;53.672;10.064;2023-03-21T16:05:21;9.90;99.90
3275;DHT22;1649;53.672;10.064;2023-03-21T16:07:50;9.90;99.90
3275;DHT22;1649;53.672;10.064;2023-03-21T16:10:36;9.80;99.90
3275;DHT22;1649;53.672;10.064;2023-03-21T16:13:03;9.90;99.90
3275;DHT22;1649;53.672;10.064;2023-03-21T16:15:29;9.80;99.90
3275;DHT22;1649;53.672;10.064;2023-03-21T16:17:57;9.80;99.90
3275;DHT22;1649;53.672;10.064;2023-03-21T16:20:26;9.70;99.90
3275;DHT22;1649;53.672;10.064;2023-03-21T16:22:52;9.70;99.90
3275;DHT22;1649;53.672;10.064;2023-03-21T16:25:18;9.70;99.90
3275;DHT22;1649;53.672;10.064;2023-03-21T16:27:45;9.70;99.90
3275;DHT22;1649;53.672;10.064;2023-03-21T16:30:17;9.60;99.90
3275;DHT22;1649;53.672;10.064;2023-03-21T16:32:43;9.60;99.90
3275;DHT22;1649;53.672;10.064;2023-03-21T16:35:09;9.50;99.90
3275;DHT22;1649;53.672;10.064;2023-03-21T16:37:35;9.50;99.90
3275;DHT22;1649;53.672;10.064;2023-03-21T16:40:01;9.50;99.90
3275;DHT22;1649;53.672;10.064;2023-03-21T16:42:30;9.50;99.90
3275;DHT22;1649;53.672;10.064;2023-03-21T16:44:55;9.40;99.90
3275;DHT22;1649;53.672;10.064;2023-03-21T16:47:21;9.40;99.90
3275;DHT22;1649;53.672;10.064;2023-03-21T16:49:50;9.40;99.90
3275;DHT22;1649;53.672;10.064;2023-03-21T16:52:15;9.40;99.90
3275;DHT22;1649;53.672;10.064;2023-03-21T16:54:41;9.40;99.90
3275;DHT22;1649;53.672;10.064;2023-03-21T16:57:15;9.30;99.90
3275;DHT22;1649;53.672;10.064;2023-03-21T16:59:42;9.30;99.90
3275;DHT22;1649;53.672;10.064;2023-03-21T17:02:11;9.30;99.90
3275;DHT22;1649;53.672;10.064;2023-03-21T17:04:37;9.30;99.90
3275;DHT22;1649;53.672;10.064;2023-03-21T17:07:03;9.30;99.90
3275;DHT22;1649;53.672;10.064;2023-03-21T17:09:28;9.30;99.90
3275;DHT22;1649;53.672;10.064;2023-03-21T17:11:54;9.20;99.90
3275;DHT22;1649;53.672;10.064;2023-03-21T17:14:19;9.20;99.90
3275;DHT22;1649;53.672;10.064;2023-03-21T17:16:47;9.20;99.90
3275;DHT22;1649;53.672;10.064;2023-03-21T17:19:17;9.20;99.90
3275;DHT22;1649;53.672;10.064;2023-03-21T17:21:43;9.20;99.90
3275;DHT22;1649;53.672;10.064;2023-03-21T17:24:09;9.20;99.90
3275;DHT22;1649;53.672;10.064;2023-03-21T17:26:35;9.20;99.90
3275;DHT22;1649;53.672;10.064;2023-03-21T17:29:01;9.20;99.90
3275;DHT22;1649;53.672;10.064;2023-03-21T17:31:31;9.20;99.90
3275;DHT22;1649;53.672;10.064;2023-03-21T17:33:58;9.20;99.90
3275;DHT22;1649;53.672;10.064;2023-03-21T17:38:55;9.10;99.90